createdAt,value
2023-05-03T00:00:47.521Z,0.40
2023-05-03T00:03:14.319Z,0.30
2023-05-03T00:05:40.825Z,0.20
2023-05-03T00:08:07.288Z,0.30
2023-05-03T00:10:33.775Z,0.30
2023-05-03T00:13:00.299Z,0.20
2023-05-03T00:15:26.705Z,0.20
2023-05-03T00:17:53.077Z,0.20
2023-05-03T00:20:20.723Z,0.20
2023-05-03T00:22:47.945Z,0.20
2023-05-03T00:25:15.207Z,0.30
2023-05-03T00:27:41.698Z,0.30
2023-05-03T00:30:08.307Z,0.30
2023-05-03T00:32:34.640Z,0.30
2023-05-03T00:35:01.546Z,0.20
2023-05-03T00:37:29.762Z,0.22
2023-05-03T00:39:56.221Z,0.20
2023-05-03T00:42:24.113Z,0.40
2023-05-03T00:44:50.435Z,0.30
2023-05-03T00:47:17.370Z,0.30
2023-05-03T00:49:44.467Z,0.40
2023-05-03T00:52:11.145Z,0.30
2023-05-03T00:54:38.015Z,0.75
2023-05-03T00:57:04.705Z,0.40
2023-05-03T00:59:31.955Z,0.45
2023-05-03T01:01:58.503Z,0.85
2023-05-03T01:04:25.077Z,0.50
2023-05-03T01:06:57.418Z,1.23
2023-05-03T01:09:37.569Z,1.48
2023-05-03T01:12:17.846Z,1.00
2023-05-03T01:14:58.848Z,0.68
2023-05-03T01:17:28.450Z,0.70
2023-05-03T01:19:56.603Z,0.73
2023-05-03T01:22:41.970Z,0.80
2023-05-03T01:25:12.009Z,0.80
2023-05-03T01:27:38.894Z,0.60
2023-05-03T01:30:06.068Z,0.55
2023-05-03T01:32:47.809Z,0.43
2023-05-03T01:35:18.258Z,0.45
2023-05-03T01:37:44.562Z,0.40
2023-05-03T01:40:12.985Z,0.40
2023-05-03T01:42:39.410Z,0.40
2023-05-03T01:45:06.022Z,0.40
2023-05-03T01:47:32.616Z,0.25
2023-05-03T01:49:58.998Z,0.50
2023-05-03T01:52:25.861Z,0.40
2023-05-03T01:54:52.288Z,0.30
2023-05-03T01:57:18.656Z,0.30
2023-05-03T01:59:44.962Z,0.30
2023-05-03T02:02:11.278Z,0.40
2023-05-03T02:04:38.002Z,0.40
2023-05-03T02:07:04.359Z,0.40
2023-05-03T02:09:30.982Z,0.30
2023-05-03T02:11:57.281Z,0.45
2023-05-03T02:14:24.029Z,0.50
2023-05-03T02:16:50.570Z,0.30
2023-05-03T02:19:17.054Z,0.50
2023-05-03T02:21:43.406Z,0.30
2023-05-03T02:24:09.756Z,0.60
2023-05-03T02:26:36.088Z,0.52
2023-05-03T02:29:02.426Z,0.60
2023-05-03T02:31:28.855Z,0.30
2023-05-03T02:33:55.257Z,0.70
2023-05-03T02:36:21.955Z,0.60
2023-05-03T02:38:48.287Z,0.47
2023-05-03T02:41:14.651Z,0.40
2023-05-03T02:43:40.988Z,0.40
2023-05-03T02:46:07.375Z,0.40
2023-05-03T02:48:34.011Z,0.30
2023-05-03T02:51:00.390Z,0.40
2023-05-03T02:53:26.772Z,0.30
2023-05-03T02:55:53.203Z,0.63
2023-05-03T02:58:19.549Z,0.52
2023-05-03T03:00:46.267Z,0.45
2023-05-03T03:03:12.746Z,0.45
2023-05-03T03:05:39.630Z,0.80
2023-05-03T03:08:06.081Z,0.60
2023-05-03T03:10:32.913Z,0.50
2023-05-03T03:12:59.449Z,0.60
2023-05-03T03:15:25.814Z,0.40
2023-05-03T03:17:52.182Z,0.50
2023-05-03T03:20:18.655Z,0.50
2023-05-03T03:22:45.479Z,0.60
2023-05-03T03:25:11.863Z,0.55
2023-05-03T03:27:39.866Z,0.63
2023-05-03T03:30:07.969Z,0.52
2023-05-03T03:32:34.361Z,0.60
2023-05-03T03:35:00.963Z,0.50
2023-05-03T03:37:27.303Z,0.43
2023-05-03T03:39:53.978Z,0.40
2023-05-03T03:42:22.640Z,0.50
2023-05-03T03:44:49.624Z,0.50
2023-05-03T03:47:16.024Z,0.55
2023-05-03T03:49:42.712Z,0.60
2023-05-03T03:52:09.098Z,0.50
2023-05-03T03:54:36.771Z,0.40
2023-05-03T03:57:03.572Z,0.60
2023-05-03T03:59:30.219Z,0.40
2023-05-03T04:01:56.687Z,0.60
2023-05-03T04:04:23.104Z,0.60
2023-05-03T04:06:49.515Z,0.40
2023-05-03T04:09:17.542Z,0.45
2023-05-03T04:11:44.439Z,0.40
2023-05-03T04:14:10.885Z,0.30
2023-05-03T04:16:37.214Z,0.40
2023-05-03T04:19:03.638Z,0.30
2023-05-03T04:21:29.956Z,0.30
2023-05-03T04:23:56.466Z,0.30
2023-05-03T04:26:31.134Z,0.20
2023-05-03T04:28:59.112Z,0.30
2023-05-03T04:31:25.803Z,0.30
2023-05-03T04:33:52.427Z,0.25
2023-05-03T04:36:19.060Z,0.22
2023-05-03T04:38:45.437Z,0.40
2023-05-03T04:41:14.115Z,0.50
2023-05-03T04:43:42.642Z,0.50
2023-05-03T04:46:09.217Z,0.50
2023-05-03T04:48:37.397Z,0.40
2023-05-03T04:51:03.913Z,0.30
2023-05-03T04:53:30.917Z,0.50
2023-05-03T04:55:57.318Z,0.35
2023-05-03T04:58:24.156Z,0.52
2023-05-03T05:00:50.614Z,0.50
2023-05-03T05:03:17.016Z,0.50
2023-05-03T05:05:43.403Z,0.45
2023-05-03T05:08:10.023Z,0.40
2023-05-03T05:10:42.449Z,0.30
2023-05-03T05:13:08.960Z,0.32
2023-05-03T05:15:35.785Z,0.40
2023-05-03T05:18:02.185Z,0.57
2023-05-03T05:20:28.590Z,0.45
2023-05-03T05:22:55.010Z,0.60
2023-05-03T05:25:21.449Z,0.88
2023-05-03T05:27:47.818Z,0.95
2023-05-03T05:30:14.471Z,0.80
2023-05-03T05:32:40.833Z,1.10
2023-05-03T05:35:07.562Z,0.80
2023-05-03T05:37:33.960Z,1.10
2023-05-03T05:40:00.374Z,1.00
2023-05-03T05:42:27.026Z,0.50
2023-05-03T05:44:53.422Z,0.93
2023-05-03T05:47:19.780Z,0.57
2023-05-03T05:49:46.281Z,0.40
2023-05-03T05:52:12.670Z,0.50
2023-05-03T05:54:39.068Z,0.80
2023-05-03T05:57:05.481Z,0.55
2023-05-03T05:59:31.917Z,0.85
2023-05-03T06:02:00.156Z,1.10
2023-05-03T06:04:27.264Z,1.40
2023-05-03T06:06:53.788Z,1.30
2023-05-03T06:09:24.771Z,1.52
2023-05-03T06:11:51.703Z,1.38
2023-05-03T06:14:19.377Z,0.80
2023-05-03T06:16:45.863Z,0.70
2023-05-03T06:19:12.237Z,1.15
2023-05-03T06:21:38.628Z,1.05
2023-05-03T06:24:05.218Z,1.90
2023-05-03T06:26:31.706Z,1.67
2023-05-03T06:28:58.171Z,2.45
2023-05-03T06:31:24.611Z,1.90
2023-05-03T06:33:51.032Z,1.40
2023-05-03T06:36:17.484Z,1.27
2023-05-03T06:38:44.049Z,1.50
2023-05-03T06:41:10.365Z,1.08
2023-05-03T06:43:36.856Z,1.52
2023-05-03T06:46:03.321Z,3.03
2023-05-03T06:48:29.863Z,2.20
2023-05-03T06:50:56.314Z,2.65
2023-05-03T06:53:22.678Z,1.92
2023-05-03T06:55:48.989Z,1.48
2023-05-03T06:58:16.674Z,1.27
2023-05-03T07:00:43.215Z,1.30
2023-05-03T07:03:09.605Z,1.90
2023-05-03T07:05:36.313Z,1.70
2023-05-03T07:08:03.616Z,2.35
2023-05-03T07:10:31.284Z,2.83
2023-05-03T07:12:57.992Z,3.08
2023-05-03T07:15:24.621Z,1.55
2023-05-03T07:17:50.988Z,1.90
2023-05-03T07:20:17.376Z,2.00
2023-05-03T07:22:44.621Z,2.53
2023-05-03T07:25:12.364Z,2.00
2023-05-03T07:27:38.868Z,3.25
2023-05-03T07:30:05.858Z,2.15
2023-05-03T07:32:32.586Z,1.77
2023-05-03T07:34:58.978Z,1.83
2023-05-03T07:37:26.877Z,2.70
2023-05-03T07:39:53.812Z,3.70
2023-05-03T07:42:20.433Z,2.10
2023-05-03T07:44:46.789Z,2.58
2023-05-03T07:47:13.290Z,1.70
2023-05-03T07:49:39.784Z,1.52
2023-05-03T07:52:06.274Z,3.13
2023-05-03T07:54:32.627Z,2.60
2023-05-03T07:56:59.060Z,2.80
2023-05-03T07:59:25.446Z,2.80
2023-05-03T08:01:51.980Z,1.80
2023-05-03T08:04:18.628Z,1.40
2023-05-03T08:06:45.426Z,1.40
2023-05-03T08:09:11.768Z,1.20
2023-05-03T08:11:38.099Z,2.20
2023-05-03T08:14:04.648Z,2.95
2023-05-03T08:16:31.559Z,2.40
2023-05-03T08:18:57.960Z,2.97
2023-05-03T08:21:26.195Z,2.20
2023-05-03T08:23:53.337Z,2.67
2023-05-03T08:26:22.001Z,1.80
2023-05-03T08:28:48.458Z,1.52
2023-05-03T08:31:15.057Z,1.65
2023-05-03T08:33:41.819Z,1.90
2023-05-03T08:36:08.247Z,1.95
2023-05-03T08:38:36.563Z,3.67
2023-05-03T08:41:08.680Z,2.63
2023-05-03T08:43:36.971Z,2.22
2023-05-03T08:46:03.316Z,2.63
2023-05-03T08:48:31.158Z,1.60
2023-05-03T08:50:58.302Z,2.20
2023-05-03T08:53:24.653Z,4.43
2023-05-03T08:55:51.285Z,3.08
2023-05-03T08:58:17.839Z,1.83
2023-05-03T09:00:45.233Z,3.22
2023-05-03T09:03:12.040Z,2.50
2023-05-03T09:05:44.172Z,2.50
2023-05-03T09:08:12.599Z,1.83
2023-05-03T09:10:41.981Z,2.22
2023-05-03T09:13:09.676Z,4.30
2023-05-03T09:15:36.218Z,3.28
2023-05-03T09:18:09.614Z,2.85
2023-05-03T09:20:37.388Z,3.78
2023-05-03T09:23:04.129Z,3.17
2023-05-03T09:25:40.331Z,4.50
2023-05-03T09:28:06.667Z,3.65
2023-05-03T09:30:32.983Z,3.00
2023-05-03T09:32:59.329Z,2.35
2023-05-03T09:35:25.661Z,2.95
2023-05-03T09:37:52.040Z,1.67
2023-05-03T09:40:18.740Z,1.80
2023-05-03T09:43:05.026Z,1.50
2023-05-03T09:45:31.460Z,1.90
2023-05-03T09:47:57.878Z,2.00
2023-05-03T09:50:24.318Z,1.70
2023-05-03T09:52:51.166Z,1.20
2023-05-03T09:55:17.630Z,1.10
2023-05-03T09:57:46.695Z,1.40
2023-05-03T10:00:13.839Z,1.63
2023-05-03T10:02:41.181Z,1.38
2023-05-03T10:05:10.961Z,2.10
2023-05-03T10:07:40.120Z,3.00
2023-05-03T10:10:07.262Z,1.83
2023-05-03T10:12:36.259Z,1.55
2023-05-03T10:15:06.203Z,1.50
2023-05-03T10:17:46.138Z,3.20
2023-05-03T10:20:22.986Z,2.10
2023-05-03T10:23:04.879Z,2.70
2023-05-03T10:28:07.492Z,1.83
2023-05-03T10:30:35.087Z,2.45
2023-05-03T10:33:13.577Z,1.70
2023-05-03T10:35:41.105Z,1.50
2023-05-03T10:38:15.671Z,1.38
2023-05-03T10:40:43.364Z,3.13
2023-05-03T10:43:28.373Z,3.00
2023-05-03T10:45:57.608Z,1.67
2023-05-03T10:48:24.213Z,1.63
2023-05-03T10:50:51.573Z,1.60
2023-05-03T10:53:38.367Z,2.20
2023-05-03T10:56:09.097Z,2.30
2023-05-03T10:58:41.992Z,1.73
2023-05-03T11:01:10.028Z,3.20
2023-05-03T11:03:54.301Z,2.08
2023-05-03T11:06:49.661Z,1.73
2023-05-03T11:09:16.451Z,1.83
2023-05-03T11:11:43.498Z,1.25
2023-05-03T11:14:10.271Z,1.30
2023-05-03T11:16:37.222Z,2.30
2023-05-03T11:19:03.674Z,2.50
2023-05-03T11:21:31.399Z,2.53
2023-05-03T11:23:58.631Z,1.67
2023-05-03T11:26:26.158Z,1.00
2023-05-03T11:28:53.941Z,1.35
2023-05-03T11:31:20.980Z,3.22
2023-05-03T11:33:48.879Z,1.90
2023-05-03T11:36:15.295Z,1.35
2023-05-03T11:38:41.661Z,1.00
2023-05-03T11:41:16.445Z,1.08
2023-05-03T11:43:44.099Z,1.30
2023-05-03T11:46:10.817Z,2.25
2023-05-03T11:48:38.500Z,1.90
2023-05-03T11:51:10.928Z,1.98
2023-05-03T11:53:39.279Z,2.60
2023-05-03T11:56:07.340Z,2.65
2023-05-03T11:58:33.841Z,1.17
2023-05-03T12:01:00.422Z,1.00
2023-05-03T12:03:31.766Z,1.48
2023-05-03T12:05:59.925Z,3.00
2023-05-03T12:08:36.446Z,2.45
2023-05-03T12:11:06.711Z,1.83
2023-05-03T12:13:38.675Z,0.95
2023-05-03T12:16:12.929Z,0.70
2023-05-03T12:18:50.294Z,0.60
2023-05-03T12:23:48.986Z,0.60
2023-05-03T12:26:18.872Z,1.40
2023-05-03T12:28:49.014Z,3.03
2023-05-03T12:31:17.918Z,1.83
2023-05-03T12:33:55.425Z,2.70
2023-05-03T12:36:37.116Z,1.77
2023-05-03T12:39:07.732Z,1.85
2023-05-03T12:42:05.407Z,1.77
2023-05-03T12:44:23.747Z,1.60
2023-05-03T12:46:52.979Z,0.80
2023-05-03T12:51:57.081Z,0.90
2023-05-03T12:54:34.256Z,2.05
2023-05-03T12:57:08.577Z,1.08
2023-05-03T12:59:43.161Z,2.13
2023-05-03T13:07:13.522Z,1.13
2023-05-03T13:12:27.624Z,2.38
2023-05-03T13:14:54.957Z,2.55
2023-05-03T13:17:22.653Z,1.83
2023-05-03T13:19:50.089Z,1.30
2023-05-03T13:22:16.845Z,0.90
2023-05-03T13:24:44.460Z,0.98
2023-05-03T13:27:11.511Z,2.40
2023-05-03T13:29:38.469Z,1.50
2023-05-03T13:32:05.217Z,2.53
2023-05-03T13:34:31.884Z,1.30
2023-05-03T13:36:58.419Z,1.42
2023-05-03T13:39:25.085Z,1.27
2023-05-03T13:41:51.813Z,1.30
2023-05-03T13:44:19.256Z,1.40
2023-05-03T13:46:46.179Z,1.27
2023-05-03T13:49:12.950Z,0.73
2023-05-03T13:51:39.738Z,0.80
2023-05-03T13:54:06.473Z,0.98
2023-05-03T13:56:32.998Z,1.58
2023-05-03T13:58:59.476Z,1.30
2023-05-03T14:01:27.352Z,1.50
2023-05-03T14:03:54.505Z,1.10
2023-05-03T14:06:21.313Z,1.10
2023-05-03T14:08:47.997Z,0.60
2023-05-03T14:11:18.683Z,0.90
2023-05-03T14:13:56.521Z,1.30
2023-05-03T14:16:39.024Z,0.80
2023-05-03T14:19:06.200Z,0.80
2023-05-03T14:21:32.957Z,1.10
2023-05-03T14:23:59.269Z,0.80
2023-05-03T14:26:26.632Z,0.65
2023-05-03T14:28:53.045Z,0.65
2023-05-03T14:31:19.426Z,0.60
2023-05-03T14:33:45.881Z,1.17
2023-05-03T14:36:12.345Z,1.42
2023-05-03T14:38:38.642Z,0.60
2023-05-03T14:41:05.032Z,1.30
2023-05-03T14:43:32.017Z,0.70
2023-05-03T14:45:58.540Z,1.58
2023-05-03T14:48:24.876Z,1.70
2023-05-03T14:50:51.462Z,1.33
2023-05-03T14:53:18.066Z,0.75
2023-05-03T14:55:45.167Z,0.60
2023-05-03T14:58:12.878Z,0.40
2023-05-03T15:00:40.255Z,2.10
2023-05-03T15:03:08.671Z,1.05
2023-05-03T15:05:41.831Z,1.17
2023-05-03T15:08:08.131Z,0.90
2023-05-03T15:10:37.682Z,0.45
2023-05-03T15:13:04.119Z,0.60
2023-05-03T15:15:30.615Z,0.60
2023-05-03T15:17:57.362Z,0.57
2023-05-03T15:20:24.151Z,0.50
2023-05-03T15:22:50.624Z,0.40
2023-05-03T15:25:16.959Z,0.50
2023-05-03T15:27:43.332Z,0.60
2023-05-03T15:30:12.288Z,0.50
2023-05-03T15:32:38.795Z,0.50
2023-05-03T15:35:05.982Z,0.70
2023-05-03T15:37:36.969Z,0.50
2023-05-03T15:40:09.261Z,0.88
2023-05-03T15:42:36.071Z,0.60
2023-05-03T15:45:02.751Z,0.47
2023-05-03T15:47:29.088Z,1.05
2023-05-03T15:49:56.550Z,0.70
2023-05-03T15:52:23.933Z,0.90
2023-05-03T15:54:51.182Z,1.13
2023-05-03T15:57:18.484Z,1.50
2023-05-03T15:59:45.117Z,1.67
2023-05-03T16:02:11.659Z,1.08
2023-05-03T16:04:38.068Z,1.17
2023-05-03T16:07:04.694Z,1.27
2023-05-03T16:09:31.173Z,0.70
2023-05-03T16:11:59.165Z,0.70
2023-05-03T16:14:26.016Z,0.60
2023-05-03T16:16:52.671Z,0.50
2023-05-03T16:19:19.077Z,0.60
2023-05-03T16:21:45.777Z,0.63
2023-05-03T16:24:12.735Z,0.60
2023-05-03T16:26:39.050Z,1.10
2023-05-03T16:29:05.738Z,0.70
2023-05-03T16:31:32.176Z,0.50
2023-05-03T16:33:58.754Z,0.40
2023-05-03T16:36:25.277Z,1.25
2023-05-03T16:38:51.715Z,0.40
2023-05-03T16:41:18.001Z,0.40
2023-05-03T16:43:44.360Z,1.05
2023-05-03T16:46:10.717Z,0.80
2023-05-03T16:48:37.183Z,0.90
2023-05-03T16:51:03.644Z,0.47
2023-05-03T16:53:31.290Z,0.70
2023-05-03T16:55:57.839Z,0.47
2023-05-03T16:58:24.186Z,0.43
2023-05-03T17:00:50.697Z,0.60
2023-05-03T17:03:17.352Z,0.50
2023-05-03T17:05:43.759Z,0.35
2023-05-03T17:08:10.335Z,0.80
2023-05-03T17:10:39.190Z,0.60
2023-05-03T17:13:06.306Z,0.80
2023-05-03T17:15:32.965Z,0.60
2023-05-03T17:18:01.938Z,0.43
2023-05-03T17:20:30.177Z,0.60
2023-05-03T17:22:56.750Z,0.40
2023-05-03T17:25:23.189Z,0.40
2023-05-03T17:27:51.890Z,0.40
2023-05-03T17:30:21.160Z,0.30
2023-05-03T17:32:48.340Z,0.30
2023-05-03T17:35:14.790Z,0.65
2023-05-03T17:37:41.207Z,0.60
2023-05-03T17:40:08.169Z,0.50
2023-05-03T17:42:34.903Z,0.50
2023-05-03T17:45:01.679Z,0.50
2023-05-03T17:47:28.524Z,0.60
2023-05-03T17:49:54.944Z,0.50
2023-05-03T17:52:21.393Z,0.40
2023-05-03T17:54:48.086Z,0.40
2023-05-03T17:57:14.514Z,0.30
2023-05-03T17:59:40.881Z,0.20
2023-05-03T18:02:07.444Z,0.30
2023-05-03T18:04:33.984Z,0.25
2023-05-03T18:07:00.681Z,0.22
2023-05-03T18:09:27.039Z,0.30
2023-05-03T18:11:54.247Z,0.30
2023-05-03T18:14:20.771Z,0.35
2023-05-03T18:16:47.163Z,0.25
2023-05-03T18:19:13.925Z,0.30
2023-05-03T18:21:40.387Z,0.30
2023-05-03T18:24:07.041Z,0.30
2023-05-03T18:26:33.429Z,0.20
2023-05-03T18:28:59.947Z,0.20
2023-05-03T18:31:27.345Z,0.20
2023-05-03T18:33:53.735Z,0.40
2023-05-03T18:36:21.771Z,0.30
2023-05-03T18:38:48.624Z,0.40
2023-05-03T18:41:16.639Z,0.30
2023-05-03T18:43:43.743Z,0.25
2023-05-03T18:46:10.638Z,0.20
2023-05-03T18:48:36.981Z,0.20
2023-05-03T18:51:04.700Z,0.20
2023-05-03T18:53:34.441Z,0.20
2023-05-03T18:56:02.272Z,0.30
2023-05-03T18:58:29.371Z,0.20
2023-05-03T19:00:56.616Z,0.30
2023-05-03T19:03:23.098Z,0.20
2023-05-03T19:05:49.532Z,0.20
2023-05-03T19:08:15.916Z,0.30
2023-05-03T19:10:42.277Z,0.20
2023-05-03T19:13:08.733Z,0.30
2023-05-03T19:15:35.223Z,0.30
2023-05-03T19:18:01.780Z,0.20
2023-05-03T19:20:28.168Z,0.20
2023-05-03T19:22:54.630Z,0.17
2023-05-03T19:25:21.084Z,0.17
2023-05-03T19:27:47.480Z,0.20
2023-05-03T19:30:14.021Z,0.55
2023-05-03T19:32:40.538Z,0.25
2023-05-03T19:35:08.597Z,0.30
2023-05-03T19:37:35.130Z,0.28
2023-05-03T19:40:02.457Z,0.32
2023-05-03T19:42:29.526Z,0.25
2023-05-03T19:44:56.357Z,0.20
2023-05-03T19:47:23.019Z,0.20
2023-05-03T19:49:49.506Z,0.25
2023-05-03T19:52:15.975Z,0.20
2023-05-03T19:54:42.410Z,0.20
2023-05-03T19:57:08.953Z,0.30
2023-05-03T19:59:35.503Z,0.20
2023-05-03T20:02:02.149Z,0.15
2023-05-03T20:04:28.670Z,0.30
2023-05-03T20:06:55.207Z,0.20
2023-05-03T20:09:23.561Z,0.30
2023-05-03T20:11:58.573Z,0.35
2023-05-03T20:14:27.285Z,0.30
2023-05-03T20:16:53.827Z,0.20
2023-05-03T20:19:20.150Z,0.20
2023-05-03T20:21:46.697Z,0.20
2023-05-03T20:24:13.022Z,0.10
2023-05-03T20:26:39.581Z,0.20
2023-05-03T20:29:06.131Z,0.20
2023-05-03T20:31:33.054Z,0.20
2023-05-03T20:33:59.656Z,0.30
2023-05-03T20:36:26.203Z,0.10
2023-05-03T20:38:52.511Z,0.20
2023-05-03T20:41:18.941Z,0.10
2023-05-03T20:43:45.344Z,0.20
2023-05-03T20:46:11.962Z,0.30
2023-05-03T20:48:38.509Z,0.20
2023-05-03T20:51:07.948Z,0.30
2023-05-03T20:53:34.452Z,0.20
2023-05-03T20:56:01.713Z,0.20
2023-05-03T20:58:28.307Z,0.30
2023-05-03T21:00:57.623Z,0.30
2023-05-03T21:03:25.070Z,0.30
2023-05-03T21:05:52.225Z,0.28
2023-05-03T21:08:18.751Z,0.30
2023-05-03T21:10:45.555Z,0.20
2023-05-03T21:13:12.043Z,0.30
2023-05-03T21:15:38.468Z,0.20
2023-05-03T21:18:06.551Z,0.30
2023-05-03T21:20:33.707Z,0.22
2023-05-03T21:23:00.082Z,0.20
2023-05-03T21:25:26.713Z,0.30
2023-05-03T21:27:54.042Z,0.40
2023-05-03T21:30:20.668Z,0.30
2023-05-03T21:32:49.780Z,0.20
2023-05-03T21:35:16.800Z,0.30
2023-05-03T21:37:43.641Z,0.20
2023-05-03T21:42:36.651Z,0.20
2023-05-03T21:45:03.304Z,0.40
2023-05-03T21:47:29.765Z,0.30
2023-05-03T21:49:56.234Z,0.20
2023-05-03T21:52:22.592Z,0.20
2023-05-03T21:54:49.003Z,0.20
2023-05-03T21:57:15.470Z,0.20
2023-05-03T21:59:42.030Z,0.15
2023-05-03T22:02:08.451Z,0.20
2023-05-03T22:04:35.067Z,0.98
2023-05-03T22:07:01.582Z,0.40
2023-05-03T22:09:28.002Z,0.35
2023-05-03T22:11:54.338Z,0.43
2023-05-03T22:14:20.690Z,0.80
2023-05-03T22:16:47.007Z,0.65
2023-05-03T22:19:13.319Z,0.65
2023-05-03T22:21:39.672Z,0.90
2023-05-03T22:24:06.287Z,0.57
2023-05-03T22:26:32.702Z,0.65
2023-05-03T22:28:59.132Z,0.88
2023-05-03T22:31:26.740Z,0.50
2023-05-03T22:33:53.188Z,0.60
2023-05-03T22:36:19.751Z,0.40
2023-05-03T22:38:46.152Z,0.40
2023-05-03T22:41:12.491Z,0.30
2023-05-03T22:43:38.987Z,0.50
2023-05-03T22:46:05.723Z,0.60
2023-05-03T22:48:34.961Z,0.70
2023-05-03T22:51:01.535Z,0.40
2023-05-03T22:53:27.959Z,0.70
2023-05-03T22:55:55.308Z,0.60
2023-05-03T22:58:21.862Z,0.40
2023-05-03T23:00:48.167Z,0.50
2023-05-03T23:03:14.621Z,0.30
2023-05-03T23:05:41.162Z,0.50
2023-05-03T23:08:07.469Z,0.50
2023-05-03T23:10:33.908Z,0.60
2023-05-03T23:13:00.269Z,0.43
2023-05-03T23:15:27.971Z,0.50
2023-05-03T23:17:54.403Z,0.50
2023-05-03T23:20:21.042Z,0.50
2023-05-03T23:22:47.551Z,0.60
2023-05-03T23:25:14.198Z,0.60
2023-05-03T23:27:40.612Z,0.30
2023-05-03T23:30:09.036Z,0.30
2023-05-03T23:32:36.329Z,0.43
2023-05-03T23:35:03.550Z,0.60
2023-05-03T23:37:29.890Z,0.50
2023-05-03T23:39:56.270Z,0.30
2023-05-03T23:42:22.729Z,0.45
2023-05-03T23:44:55.392Z,0.80
2023-05-03T23:47:22.577Z,0.60
2023-05-03T23:49:49.086Z,0.30
2023-05-03T23:52:16.973Z,0.47
2023-05-03T23:54:43.397Z,0.40
2023-05-03T23:57:09.909Z,0.40
2023-05-03T23:59:36.257Z,0.40
